Time;durP1;ratioP1;P1;durP2;ratioP2;P2;SDS_P1;SDS_P2;PMS_P1;PMS_P2;Temp;Humidity;BMP_temperature;BMP_pressure;BME280_temperature;BME280_humidity;BME280_pressure;Samples;Min_cycle;Max_cycle;Signal;HPM_P1;HPM_P2
2022/11/16 00:01:43;;;;;;;9.27;6.07;;;11.20;99.90;;;;;;5112902;28;20095;-68
2022/11/16 00:04:10;;;;;;;8.18;5.80;;;11.20;99.90;;;;;;5112546;28;20036;-68
2022/11/16 00:06:36;;;;;;;7.13;5.82;;;11.20;99.90;;;;;;5112775;28;20407;-68
2022/11/16 00:09:21;;;;;;;6.10;5.50;;;11.20;99.90;;;;;;5112532;28;20516;-68
2022/11/16 00:11:53;;;;;;;7.85;6.18;;;11.20;99.90;;;;;;5112394;28;20046;-68
2022/11/16 00:14:19;;;;;;;10.43;7.00;;;11.20;99.90;;;;;;5114161;28;20047;-71
2022/11/16 00:16:45;;;;;;;9.40;6.18;;;11.20;99.90;;;;;;5115560;28;20047;-70
2022/11/16 00:19:11;;;;;;;11.20;7.35;;;11.20;99.90;;;;;;5117601;28;20084;-71
2022/11/16 00:21:37;;;;;;;8.02;6.20;;;11.20;99.90;;;;;;5115830;28;20045;-71
2022/11/16 00:24:03;;;;;;;10.40;6.90;;;11.20;99.90;;;;;;5116089;28;20038;-71
2022/11/16 00:26:29;;;;;;;9.60;6.97;;;11.20;99.90;;;;;;5115740;28;20505;-71
2022/11/16 00:28:55;;;;;;;8.82;7.43;;;11.10;99.90;;;;;;5115943;28;20118;-71
2022/11/16 00:31:21;;;;;;;8.80;7.40;;;11.10;99.90;;;;;;5115981;28;20051;-71
2022/11/16 00:33:48;;;;;;;7.95;7.15;;;11.20;99.90;;;;;;5115742;28;20044;-71
2022/11/16 00:36:14;;;;;;;7.65;6.95;;;11.20;99.90;;;;;;5115290;28;20530;-71
2022/11/16 00:38:40;;;;;;;10.05;7.65;;;11.10;99.90;;;;;;5115380;28;20464;-71
2022/11/16 00:41:07;;;;;;;9.55;7.55;;;11.10;99.90;;;;;;5115490;28;20074;-70
2022/11/16 00:43:33;;;;;;;8.45;6.88;;;11.20;99.90;;;;;;5114591;28;20081;-70
2022/11/16 00:45:59;;;;;;;10.15;8.77;;;11.20;99.90;;;;;;5112413;28;20036;-70
2022/11/16 00:48:25;;;;;;;13.30;8.75;;;11.20;99.90;;;;;;5095125;28;20042;-70
2022/11/16 00:50:51;;;;;;;10.25;8.40;;;11.20;99.90;;;;;;5112100;28;20055;-71
2022/11/16 00:53:18;;;;;;;10.27;7.85;;;11.20;99.90;;;;;;5113529;28;20031;-71
2022/11/16 00:55:45;;;;;;;9.40;8.13;;;11.20;99.90;;;;;;5111996;28;20044;-71
2022/11/16 00:58:12;;;;;;;9.27;7.80;;;11.20;99.90;;;;;;5112329;28;20047;-71
2022/11/16 01:00:39;;;;;;;10.20;8.60;;;11.20;99.90;;;;;;5112729;28;20051;-71
2022/11/16 01:03:05;;;;;;;10.18;8.20;;;11.20;99.90;;;;;;5115902;28;20035;-71
2022/11/16 01:05:30;;;;;;;9.20;7.82;;;11.20;99.90;;;;;;5115916;28;20062;-71
2022/11/16 01:07:56;;;;;;;11.52;8.98;;;11.20;99.90;;;;;;5116127;28;20038;-71
2022/11/16 01:10:24;;;;;;;9.18;8.25;;;11.20;99.90;;;;;;5115862;28;20035;-71
2022/11/16 01:12:53;;;;;;;10.60;8.65;;;11.20;99.90;;;;;;5115980;28;20504;-71
2022/11/16 01:15:20;;;;;;;10.38;9.27;;;11.20;99.90;;;;;;5116991;28;20046;-71
2022/11/16 01:17:47;;;;;;;10.68;8.18;;;11.20;99.90;;;;;;5115698;28;20040;-71
2022/11/16 01:20:18;;;;;;;9.75;8.75;;;11.20;99.90;;;;;;5115911;28;20039;-71
2022/11/16 01:22:44;;;;;;;11.02;8.93;;;11.20;99.90;;;;;;5115511;28;20044;-71
2022/11/16 01:25:11;;;;;;;12.13;9.55;;;11.20;99.90;;;;;;5115547;28;20046;-71
2022/11/16 01:27:37;;;;;;;9.20;8.20;;;11.20;99.90;;;;;;5116768;28;20046;-71
2022/11/16 01:30:05;;;;;;;9.90;8.60;;;11.20;99.90;;;;;;5115722;28;20035;-71
2022/11/16 01:32:31;;;;;;;9.05;7.72;;;11.20;99.90;;;;;;5115343;28;20519;-71
2022/11/16 01:34:56;;;;;;;10.30;8.18;;;11.20;99.90;;;;;;5115376;28;20040;-71
2022/11/16 01:37:22;;;;;;;8.98;8.07;;;11.20;99.90;;;;;;5115611;28;20131;-71
2022/11/16 01:39:49;;;;;;;11.20;8.30;;;11.20;99.90;;;;;;5115266;28;20389;-71
2022/11/16 01:42:27;;;;;;;9.27;7.82;;;11.20;99.90;;;;;;5115042;28;20122;-71
2022/11/16 01:45:06;;;;;;;10.10;8.30;;;11.20;99.90;;;;;;5115181;28;20043;-71
2022/11/16 01:47:32;;;;;;;11.52;7.72;;;11.20;99.90;;;;;;5115193;28;20047;-71
2022/11/16 01:50:04;;;;;;;10.27;7.80;;;11.20;99.90;;;;;;5115029;28;20075;-71
2022/11/16 01:52:34;;;;;;;9.30;7.20;;;11.20;99.90;;;;;;5114992;28;20050;-71
2022/11/16 01:55:00;;;;;;;11.43;8.35;;;11.20;99.90;;;;;;5114945;28;20043;-71
2022/11/16 01:57:34;;;;;;;9.32;7.80;;;11.20;99.90;;;;;;5114941;28;20506;-71
2022/11/16 02:00:01;;;;;;;10.95;7.70;;;11.20;99.90;;;;;;5115147;28;20403;-71
2022/11/16 02:02:27;;;;;;;9.13;8.00;;;11.20;99.90;;;;;;5114783;28;20032;-71
2022/11/16 02:04:54;;;;;;;8.63;7.72;;;11.20;99.90;;;;;;5115092;28;20553;-71
2022/11/16 02:07:25;;;;;;;8.77;7.50;;;11.20;99.90;;;;;;5114791;28;20089;-71
2022/11/16 02:09:57;;;;;;;10.70;7.45;;;11.20;99.90;;;;;;5114742;28;20043;-71
2022/11/16 02:12:52;;;;;;;8.88;7.72;;;11.20;99.90;;;;;;5114784;28;20040;-71
2022/11/16 02:15:32;;;;;;;8.60;7.68;;;11.20;99.90;;;;;;5114623;28;20096;-71
2022/11/16 02:18:22;;;;;;;10.85;7.43;;;11.20;99.90;;;;;;5114610;28;20075;-71
2022/11/16 02:21:02;;;;;;;10.40;7.90;;;11.20;99.90;;;;;;5114463;28;20039;-71
2022/11/16 02:23:53;;;;;;;9.68;7.50;;;11.20;99.90;;;;;;5115740;28;20039;-71
2022/11/16 02:26:49;;;;;;;8.70;7.72;;;11.20;99.90;;;;;;5114439;28;20051;-71
2022/11/16 02:29:20;;;;;;;9.10;7.78;;;11.30;99.90;;;;;;5114360;28;20044;-71
2022/11/16 02:31:57;;;;;;;7.45;6.72;;;11.20;99.90;;;;;;5114544;28;20079;-71
2022/11/16 02:34:23;;;;;;;11.30;7.57;;;11.20;99.90;;;;;;5114541;28;20074;-71
2022/11/16 02:36:53;;;;;;;7.47;6.75;;;11.20;99.90;;;;;;5114206;28;20091;-71
2022/11/16 02:39:23;;;;;;;8.95;6.93;;;11.20;99.90;;;;;;5115478;28;20088;-71
2022/11/16 02:41:50;;;;;;;11.25;6.70;;;11.20;99.90;;;;;;5113801;28;20047;-71
2022/11/16 02:44:27;;;;;;;8.73;6.93;;;11.20;99.90;;;;;;5114127;28;20483;-71
2022/11/16 02:46:58;;;;;;;11.73;7.40;;;11.20;99.90;;;;;;5115356;28;20104;-71
2022/11/16 02:49:25;;;;;;;8.32;6.82;;;11.20;99.90;;;;;;5115816;28;20473;-71
2022/11/16 02:51:53;;;;;;;9.30;7.20;;;11.20;99.90;;;;;;5113806;28;20054;-71
2022/11/16 02:54:21;;;;;;;7.82;6.97;;;11.20;99.90;;;;;;5114102;28;20047;-71
2022/11/16 02:57:02;;;;;;;7.88;6.45;;;11.20;99.90;;;;;;5113777;28;20488;-71
2022/11/16 02:59:45;;;;;;;8.85;7.13;;;11.20;99.90;;;;;;5114045;28;20126;-71
2022/11/16 03:02:19;;;;;;;9.73;7.07;;;11.20;99.90;;;;;;5113565;28;20040;-71
2022/11/16 03:04:49;;;;;;;9.02;7.38;;;11.20;99.90;;;;;;5113920;28;20187;-71
2022/11/16 03:07:19;;;;;;;8.95;6.53;;;11.20;99.90;;;;;;5115418;28;20048;-71
2022/11/16 03:09:48;;;;;;;7.93;6.10;;;11.20;99.90;;;;;;5115063;28;20540;-71
2022/11/16 03:12:19;;;;;;;9.00;6.78;;;11.20;99.90;;;;;;5113367;28;20054;-71
2022/11/16 03:14:51;;;;;;;8.15;5.88;;;11.20;99.90;;;;;;5114774;28;20043;-71
2022/11/16 03:17:26;;;;;;;9.20;7.07;;;11.20;99.90;;;;;;5113411;28;20499;-71
2022/11/16 03:20:06;;;;;;;9.02;7.22;;;11.20;99.90;;;;;;5113398;28;20039;-71
2022/11/16 03:22:44;;;;;;;10.57;6.97;;;11.20;99.90;;;;;;5113144;28;20122;-71
2022/11/16 03:25:12;;;;;;;9.60;7.18;;;11.20;99.90;;;;;;5113145;28;20088;-71
2022/11/16 03:27:56;;;;;;;12.32;7.43;;;11.20;99.90;;;;;;5113148;28;20133;-71
2022/11/16 03:30:24;;;;;;;10.77;7.38;;;11.20;99.90;;;;;;5113221;28;20036;-71
2022/11/16 03:33:04;;;;;;;12.98;8.23;;;11.20;99.90;;;;;;5114281;28;20079;-71
2022/11/16 03:35:42;;;;;;;11.65;8.02;;;11.20;99.90;;;;;;5113295;28;20047;-70
2022/11/16 03:38:09;;;;;;;10.02;7.20;;;11.20;99.90;;;;;;5113023;28;20035;-70
2022/11/16 03:40:36;;;;;;;14.65;7.68;;;11.20;99.90;;;;;;5112951;28;20404;-70
2022/11/16 03:43:03;;;;;;;11.45;7.95;;;11.20;99.90;;;;;;5112660;28;20039;-71
2022/11/16 03:45:30;;;;;;;10.25;8.13;;;11.20;99.90;;;;;;5114137;28;20039;-71
2022/11/16 03:47:55;;;;;;;11.35;7.63;;;11.10;99.90;;;;;;5112812;28;20071;-71
2022/11/16 03:50:21;;;;;;;8.82;7.72;;;11.20;99.90;;;;;;5113041;28;20063;-71
2022/11/16 03:52:47;;;;;;;10.70;8.65;;;11.20;99.90;;;;;;5112694;28;20046;-71
2022/11/16 03:55:13;;;;;;;11.40;8.35;;;11.20;99.90;;;;;;5112995;28;20092;-71
2022/11/16 03:57:38;;;;;;;12.70;8.23;;;11.20;99.90;;;;;;5112709;28;20560;-71
2022/11/16 04:00:06;;;;;;;13.45;8.65;;;11.10;99.90;;;;;;5112926;28;20047;-71
2022/11/16 04:02:31;;;;;;;10.55;7.90;;;11.20;99.90;;;;;;5112562;28;20075;-71
2022/11/16 04:24:18;;;;;;;11.52;9.88;;;11.10;99.90;;;;;;5112633;28;20079;-68
2022/11/16 04:29:38;;;;;;;12.07;9.30;;;11.10;99.90;;;;;;5112314;28;20047;-68
2022/11/16 04:37:51;;;;;;;12.13;9.13;;;11.00;99.90;;;;;;5116515;28;20507;-68
2022/11/16 04:40:18;;;;;;;11.57;9.55;;;11.00;99.90;;;;;;5116466;28;20051;-68
2022/11/16 04:42:59;;;;;;;11.93;10.02;;;11.10;99.90;;;;;;5116186;28;20131;-68
2022/11/16 04:48:12;;;;;;;10.73;9.38;;;11.10;99.90;;;;;;5116612;28;20043;-68
2022/11/16 04:50:39;;;;;;;11.50;9.95;;;11.10;99.90;;;;;;5116230;28;20043;-68
2022/11/16 04:53:05;;;;;;;12.57;9.90;;;11.10;99.90;;;;;;5116138;28;20053;-68
2022/11/16 04:55:31;;;;;;;13.50;10.73;;;11.10;99.90;;;;;;5117670;28;20106;-68
2022/11/16 04:57:57;;;;;;;11.30;10.10;;;11.00;99.90;;;;;;5116200;28;20568;-68
2022/11/16 05:00:23;;;;;;;13.15;10.35;;;11.00;99.90;;;;;;5116291;28;20044;-68
2022/11/16 05:02:49;;;;;;;12.63;10.77;;;11.00;99.90;;;;;;5115889;28;20408;-68
2022/11/16 05:05:15;;;;;;;12.10;9.48;;;11.00;99.90;;;;;;5115984;28;20036;-68
2022/11/16 05:07:41;;;;;;;11.40;9.73;;;11.00;99.90;;;;;;5115920;28;20114;-68
2022/11/16 05:10:07;;;;;;;11.52;9.98;;;11.10;99.90;;;;;;5115818;28;20061;-68
2022/11/16 05:12:33;;;;;;;11.60;10.32;;;11.10;99.90;;;;;;5115790;28;20039;-68
2022/11/16 05:14:59;;;;;;;12.02;10.20;;;11.10;99.90;;;;;;5115790;28;20054;-69
2022/11/16 05:17:26;;;;;;;13.60;10.75;;;11.00;99.90;;;;;;5116008;28;20048;-68
2022/11/16 05:22:36;;;;;;;11.43;10.23;;;11.10;99.90;;;;;;5115482;28;20052;-68
2022/11/16 05:25:04;;;;;;;14.32;11.73;;;11.00;99.90;;;;;;5115834;28;20027;-68
2022/11/16 05:27:30;;;;;;;13.88;11.65;;;11.00;99.90;;;;;;5115561;28;20040;-68
2022/11/16 05:29:55;;;;;;;11.23;10.13;;;11.10;99.90;;;;;;5115813;28;20134;-68
2022/11/16 05:32:22;;;;;;;13.30;11.65;;;11.00;99.90;;;;;;5115629;28;20118;-68
2022/11/16 05:34:48;;;;;;;14.90;11.38;;;11.10;99.90;;;;;;5115435;28;20039;-68
2022/11/16 05:37:14;;;;;;;12.45;10.98;;;11.10;99.90;;;;;;5115653;28;20043;-68
2022/11/16 05:39:39;;;;;;;14.93;11.63;;;11.10;99.90;;;;;;5115624;28;20576;-68
2022/11/16 05:42:06;;;;;;;17.10;13.80;;;11.10;99.90;;;;;;5114948;28;20052;-68
2022/11/16 05:44:32;;;;;;;15.10;13.57;;;11.10;99.90;;;;;;5115315;28;20078;-68
2022/11/16 05:46:58;;;;;;;18.48;15.45;;;11.00;99.90;;;;;;5115109;28;20056;-68
2022/11/16 05:49:24;;;;;;;16.13;13.93;;;11.10;99.90;;;;;;5115199;28;20039;-68
2022/11/16 05:51:50;;;;;;;18.65;15.48;;;11.00;99.90;;;;;;5116534;28;20066;-68
2022/11/16 05:54:19;;;;;;;16.73;14.68;;;11.00;99.90;;;;;;5116340;28;20483;-68
2022/11/16 05:56:46;;;;;;;19.60;16.65;;;11.10;99.90;;;;;;5115037;28;20538;-68
2022/11/16 05:59:12;;;;;;;20.27;15.10;;;11.00;99.90;;;;;;5115017;28;20051;-68
2022/11/16 06:01:38;;;;;;;25.35;17.45;;;11.00;99.90;;;;;;5114789;28;20089;-68
2022/11/16 06:04:04;;;;;;;27.55;16.83;;;11.00;99.90;;;;;;5114870;28;20118;-68
2022/11/16 06:06:30;;;;;;;22.00;15.93;;;11.00;99.90;;;;;;5114775;28;20071;-68
2022/11/16 06:08:55;;;;;;;15.18;13.52;;;11.00;99.90;;;;;;5115976;28;20039;-68
2022/11/16 06:11:21;;;;;;;15.95;13.25;;;11.00;99.90;;;;;;5114898;28;20036;-68
2022/11/16 06:13:47;;;;;;;16.02;14.15;;;11.00;99.90;;;;;;5116224;28;20433;-68
2022/11/16 06:16:12;;;;;;;20.42;14.10;;;11.00;99.90;;;;;;5114655;28;20040;-68
2022/11/16 06:18:40;;;;;;;13.95;12.48;;;11.00;99.90;;;;;;5114896;28;20038;-68
2022/11/16 06:21:07;;;;;;;18.85;13.63;;;11.00;99.90;;;;;;5114412;28;20082;-68
2022/11/16 06:23:33;;;;;;;18.15;11.68;;;11.00;99.90;;;;;;5114500;28;20035;-68
2022/11/16 06:25:59;;;;;;;17.55;14.15;;;11.00;99.90;;;;;;5114441;28;20119;-68
2022/11/16 06:28:25;;;;;;;18.23;13.60;;;11.00;99.90;;;;;;5114679;28;20035;-68
2022/11/16 06:30:51;;;;;;;10.65;9.55;;;11.00;99.90;;;;;;5114625;28;20036;-68
2022/11/16 06:33:17;;;;;;;15.57;12.77;;;11.00;99.90;;;;;;5116314;28;20042;-67
2022/11/16 06:35:42;;;;;;;10.70;9.60;;;11.00;99.90;;;;;;5114522;28;20067;-67
2022/11/16 06:38:08;;;;;;;10.85;9.55;;;11.00;99.90;;;;;;5115514;28;20079;-67
2022/11/16 06:40:34;;;;;;;9.38;8.48;;;11.00;99.90;;;;;;5115414;28;20039;-68
2022/11/16 06:42:59;;;;;;;9.63;8.27;;;11.00;99.90;;;;;;5113863;28;20122;-68
2022/11/16 06:45:25;;;;;;;10.18;8.48;;;11.10;99.90;;;;;;5114311;28;20089;-68
2022/11/16 06:47:51;;;;;;;10.32;9.20;;;11.00;99.90;;;;;;5114008;28;20492;-68
2022/11/16 06:50:18;;;;;;;10.63;7.97;;;11.00;99.90;;;;;;5113911;28;20051;-68
2022/11/16 06:52:48;;;;;;;8.93;7.15;;;11.00;99.90;;;;;;5114097;28;20442;-68
2022/11/16 06:55:14;;;;;;;8.30;7.50;;;11.00;99.90;;;;;;5113854;28;20051;-68
2022/11/16 06:57:40;;;;;;;8.90;8.00;;;11.00;99.90;;;;;;5113926;28;20070;-68
2022/11/16 07:00:07;;;;;;;8.25;7.30;;;11.10;99.90;;;;;;5113212;28;20484;-68
2022/11/16 07:02:36;;;;;;;8.32;7.50;;;11.10;99.90;;;;;;5113789;28;20050;-68
2022/11/16 07:05:01;;;;;;;8.13;7.32;;;11.10;99.90;;;;;;5113612;28;20415;-68
2022/11/16 07:07:27;;;;;;;8.43;6.53;;;11.10;99.90;;;;;;5114869;28;20035;-68
2022/11/16 07:09:52;;;;;;;8.32;7.43;;;11.10;99.90;;;;;;5113831;28;20035;-68
2022/11/16 07:12:18;;;;;;;7.10;6.13;;;11.10;99.90;;;;;;5113467;28;20044;-68
2022/11/16 07:14:44;;;;;;;8.27;7.20;;;11.10;99.90;;;;;;5113721;28;20044;-68
2022/11/16 07:17:10;;;;;;;9.07;7.60;;;11.10;99.90;;;;;;5114923;28;20046;-68
2022/11/16 07:19:35;;;;;;;9.52;8.20;;;11.10;99.90;;;;;;5113391;28;20036;-68
2022/11/16 07:22:01;;;;;;;8.85;7.95;;;11.10;99.90;;;;;;5113480;28;20048;-68
2022/11/16 07:24:26;;;;;;;9.95;8.95;;;11.10;99.90;;;;;;5113302;28;20032;-69
2022/11/16 07:26:52;;;;;;;9.95;8.88;;;11.10;99.90;;;;;;5113224;28;20044;-68
2022/11/16 07:29:18;;;;;;;10.57;9.15;;;11.10;99.90;;;;;;5113444;28;20043;-68
2022/11/16 07:31:43;;;;;;;11.95;9.75;;;11.10;99.90;;;;;;5113094;28;20119;-68
2022/11/16 07:34:09;;;;;;;10.75;9.65;;;11.10;99.90;;;;;;5113076;28;20078;-68
2022/11/16 07:36:34;;;;;;;20.27;11.02;;;11.10;99.90;;;;;;5113116;28;20122;-68
2022/11/16 07:39:00;;;;;;;13.23;11.27;;;11.10;99.90;;;;;;5113250;28;20044;-68
2022/11/16 07:41:26;;;;;;;12.10;10.85;;;11.10;99.90;;;;;;5112782;28;20044;-68
2022/11/16 07:43:52;;;;;;;15.05;13.07;;;11.10;99.90;;;;;;5113233;28;20044;-68
2022/11/16 07:46:20;;;;;;;13.32;11.23;;;11.10;99.90;;;;;;5113163;28;20043;-68
2022/11/16 07:48:45;;;;;;;11.95;10.75;;;11.10;99.90;;;;;;5112897;28;20047;-68
2022/11/16 07:51:13;;;;;;;10.30;9.00;;;11.10;99.90;;;;;;5112982;28;20040;-69
2022/11/16 07:53:40;;;;;;;12.85;10.95;;;11.10;99.90;;;;;;5112793;28;20118;-68
2022/11/16 07:56:07;;;;;;;12.60;11.30;;;11.10;99.90;;;;;;5114051;28;20032;-68
2022/11/16 07:58:33;;;;;;;17.02;13.90;;;11.10;99.90;;;;;;5112761;28;20407;-68
2022/11/16 08:01:06;;;;;;;16.60;14.00;;;11.10;99.90;;;;;;5112540;28;20039;-69
2022/11/16 08:03:34;;;;;;;11.90;10.73;;;11.10;99.90;;;;;;5112655;28;20035;-68
2022/11/16 08:06:02;;;;;;;13.88;11.70;;;11.10;99.90;;;;;;5112665;28;20048;-68
2022/11/16 08:08:28;;;;;;;15.90;11.07;;;11.00;99.90;;;;;;5113582;28;20122;-68
2022/11/16 08:11:02;;;;;;;13.43;11.52;;;11.10;99.90;;;;;;5112744;28;20585;-68
2022/11/16 08:13:30;;;;;;;11.32;10.13;;;11.00;99.90;;;;;;5112761;28;20067;-68
2022/11/16 08:16:03;;;;;;;11.23;9.88;;;11.00;99.90;;;;;;5113701;28;20480;-68
2022/11/16 08:18:30;;;;;;;10.50;9.15;;;11.00;99.90;;;;;;5112739;28;20071;-68
2022/11/16 08:21:00;;;;;;;11.65;10.10;;;11.00;99.90;;;;;;5112509;28;20050;-68
2022/11/16 08:23:27;;;;;;;10.48;9.38;;;11.00;99.90;;;;;;5112549;28;20118;-68
2022/11/16 08:26:00;;;;;;;12.05;9.90;;;11.00;99.90;;;;;;5112519;28;20495;-68
2022/11/16 08:28:27;;;;;;;10.60;9.48;;;11.00;99.90;;;;;;5112655;28;20037;-68
2022/11/16 08:30:53;;;;;;;11.00;9.75;;;11.00;99.90;;;;;;5112327;28;20040;-71
2022/11/16 08:33:20;;;;;;;11.68;10.23;;;11.00;99.90;;;;;;5112459;28;20047;-68
2022/11/16 08:35:47;;;;;;;11.88;9.80;;;11.00;99.90;;;;;;5112234;28;20043;-70
2022/11/16 08:38:13;;;;;;;9.75;8.77;;;11.00;99.90;;;;;;5112223;28;20040;-68
2022/11/16 08:40:38;;;;;;;12.60;9.40;;;11.00;99.90;;;;;;5112471;28;20092;-68
2022/11/16 08:43:04;;;;;;;9.82;8.82;;;11.10;99.90;;;;;;5111828;28;20492;-68
2022/11/16 08:45:30;;;;;;;11.32;9.23;;;11.10;99.90;;;;;;5112136;28;20075;-68
2022/11/16 08:47:56;;;;;;;11.15;8.93;;;11.10;99.90;;;;;;5112066;28;20080;-68
2022/11/16 08:50:22;;;;;;;10.15;8.85;;;11.10;99.90;;;;;;5112038;28;20036;-68
2022/11/16 08:52:48;;;;;;;9.00;8.10;;;11.10;99.90;;;;;;5112016;28;20051;-68
2022/11/16 08:55:16;;;;;;;10.35;8.85;;;11.10;99.90;;;;;;5095322;28;20059;-68
2022/11/16 08:57:41;;;;;;;10.90;8.73;;;11.20;99.90;;;;;;5112002;28;20412;-72
2022/11/16 09:00:07;;;;;;;10.02;8.35;;;11.20;99.90;;;;;;5112220;28;20047;-68
2022/11/16 09:02:33;;;;;;;9.07;7.53;;;11.20;99.90;;;;;;5111772;28;20411;-68
2022/11/16 09:04:58;;;;;;;8.23;7.38;;;11.20;99.90;;;;;;5112425;28;20031;-68
2022/11/16 09:07:24;;;;;;;8.10;7.30;;;11.20;99.90;;;;;;5112034;28;20544;-68
2022/11/16 09:09:50;;;;;;;9.18;7.25;;;11.20;99.90;;;;;;5112000;28;20036;-68
2022/11/16 09:12:15;;;;;;;11.07;7.18;;;11.30;99.90;;;;;;5111913;28;20100;-68
2022/11/16 09:14:41;;;;;;;8.45;6.63;;;11.30;99.90;;;;;;5111866;28;20035;-68
2022/11/16 09:17:06;;;;;;;7.57;6.78;;;11.30;99.90;;;;;;5111872;28;20043;-68
2022/11/16 09:19:32;;;;;;;7.70;6.78;;;11.40;99.90;;;;;;5094919;28;20046;-68
2022/11/16 09:21:57;;;;;;;11.73;7.32;;;11.40;99.90;;;;;;5113214;28;20042;-68
2022/11/16 09:24:23;;;;;;;8.68;7.78;;;11.40;99.90;;;;;;5115642;28;20044;-68
2022/11/16 09:26:51;;;;;;;9.07;7.90;;;11.50;99.90;;;;;;5116884;28;20092;-68
2022/11/16 09:29:17;;;;;;;11.40;8.48;;;11.50;99.90;;;;;;5115586;28;20043;-68
2022/11/16 09:31:42;;;;;;;11.77;10.23;;;11.50;99.90;;;;;;5115714;28;20039;-68
2022/11/16 09:34:08;;;;;;;14.50;11.75;;;11.50;99.90;;;;;;5115483;28;20047;-68
2022/11/16 09:36:34;;;;;;;10.57;9.15;;;11.60;99.90;;;;;;5115456;28;20141;-67
2022/11/16 09:38:59;;;;;;;14.25;11.30;;;11.60;99.90;;;;;;5115424;28;20172;-68
2022/11/16 09:41:51;;;;;;;12.23;10.85;;;11.60;99.90;;;;;;5115036;28;20058;-68
2022/11/16 09:44:41;;;;;;;11.48;10.13;;;11.70;99.90;;;;;;5115334;28;20044;-68
2022/11/16 09:47:15;;;;;;;12.98;10.70;;;11.90;99.90;;;;;;5115292;28;20044;-68
2022/11/16 09:49:47;;;;;;;11.88;10.65;;;11.90;99.90;;;;;;5115796;28;20047;-68
2022/11/16 09:52:25;;;;;;;16.13;10.43;;;12.00;99.90;;;;;;5115137;28;20047;-68
2022/11/16 09:54:53;;;;;;;13.80;10.90;;;12.00;99.90;;;;;;5115105;28;20495;-68
2022/11/16 09:57:26;;;;;;;15.57;11.60;;;12.10;99.90;;;;;;5115029;28;20519;-68
2022/11/16 09:59:57;;;;;;;14.05;11.10;;;12.20;99.90;;;;;;5115332;28;20043;-68
2022/11/16 10:02:37;;;;;;;15.75;10.65;;;12.30;99.90;;;;;;5114987;28;20148;-68
2022/11/16 10:05:12;;;;;;;15.80;11.10;;;12.30;99.90;;;;;;5114937;28;20044;-68
2022/11/16 10:07:47;;;;;;;15.75;10.40;;;12.20;99.90;;;;;;5115128;28;20042;-68
2022/11/16 10:10:15;;;;;;;14.32;10.23;;;12.30;99.90;;;;;;5114910;28;20399;-68
2022/11/16 10:12:58;;;;;;;14.68;11.25;;;12.20;99.90;;;;;;5114649;28;20127;-69
2022/11/16 10:15:29;;;;;;;14.63;10.95;;;12.30;99.90;;;;;;5114764;28;20114;-69
2022/11/16 10:18:29;;;;;;;13.70;10.02;;;12.30;99.90;;;;;;5114602;28;20057;-69
2022/11/16 10:21:17;;;;;;;14.25;10.88;;;12.30;99.90;;;;;;5114723;28;20051;-68
2022/11/16 10:24:01;;;;;;;11.75;9.20;;;12.30;99.90;;;;;;5114599;28;20079;-68
2022/11/16 10:26:48;;;;;;;12.50;9.95;;;12.50;99.90;;;;;;5114758;28;20088;-71
2022/11/16 10:29:32;;;;;;;18.23;10.32;;;12.50;99.90;;;;;;5114727;28;20100;-68
2022/11/16 10:32:17;;;;;;;14.38;9.52;;;12.50;99.90;;;;;;5114335;28;20039;-68
2022/11/16 10:35:08;;;;;;;15.02;8.52;;;12.50;99.90;;;;;;5113198;28;20047;-68
2022/11/16 10:37:38;;;;;;;11.98;8.10;;;12.50;99.90;;;;;;5114298;28;20405;-68
2022/11/16 10:40:18;;;;;;;11.95;8.75;;;12.60;99.90;;;;;;5114239;28;20058;-68
2022/11/16 10:42:57;;;;;;;12.68;8.63;;;12.70;99.90;;;;;;5113967;28;20126;-68
2022/11/16 10:45:31;;;;;;;14.45;8.68;;;12.90;99.90;;;;;;5115094;28;20067;-68
2022/11/16 10:48:03;;;;;;;12.70;8.23;;;13.00;99.90;;;;;;5114117;28;20051;-68
2022/11/16 10:50:41;;;;;;;11.20;7.05;;;13.00;99.90;;;;;;5114076;28;20132;-68
2022/11/16 10:53:12;;;;;;;10.02;6.32;;;12.90;99.90;;;;;;5113878;28;20411;-68
2022/11/16 10:55:37;;;;;;;14.40;7.05;;;12.90;99.90;;;;;;5114132;28;20055;-68
2022/11/16 10:58:04;;;;;;;10.57;6.90;;;12.70;99.90;;;;;;5113868;28;20047;-68
2022/11/16 11:00:45;;;;;;;10.07;5.38;;;12.80;99.90;;;;;;5113762;28;20124;-68
2022/11/16 11:03:10;;;;;;;15.73;5.63;;;13.00;99.90;;;;;;5113692;28;20039;-68
2022/11/16 11:05:47;;;;;;;10.02;4.82;;;13.50;99.90;;;;;;5113636;28;20042;-67
2022/11/16 11:08:22;;;;;;;9.32;4.03;;;14.00;99.90;;;;;;5113990;28;20128;-68
2022/11/16 11:11:02;;;;;;;13.45;4.63;;;14.20;99.90;;;;;;5113620;28;20050;-68
2022/11/16 11:13:27;;;;;;;12.45;4.40;;;14.00;99.90;;;;;;5113879;28;20426;-68
2022/11/16 11:16:15;;;;;;;9.07;3.85;;;13.80;99.90;;;;;;5113474;28;20084;-68
2022/11/16 11:18:41;;;;;;;8.32;3.72;;;13.60;99.90;;;;;;5113406;28;20507;-68
2022/11/16 11:21:19;;;;;;;8.02;3.53;;;13.40;99.90;;;;;;5113489;28;20064;-69
2022/11/16 11:23:50;;;;;;;11.35;4.10;;;13.30;99.90;;;;;;5113701;28;20043;-68
2022/11/16 11:26:30;;;;;;;10.95;3.92;;;13.20;99.90;;;;;;5113542;28;20085;-67
2022/11/16 11:28:56;;;;;;;10.20;3.78;;;13.20;99.90;;;;;;5113538;28;20075;-67
2022/11/16 11:31:33;;;;;;;7.70;3.10;;;13.20;99.90;;;;;;5113378;28;20039;-68
2022/11/16 11:34:08;;;;;;;10.52;3.30;;;13.20;99.90;;;;;;5113234;28;20050;-67
2022/11/16 11:36:47;;;;;;;9.82;2.85;;;13.30;99.90;;;;;;5113269;28;20127;-68
2022/11/16 11:39:12;;;;;;;6.95;3.15;;;13.40;99.90;;;;;;5113102;28;20039;-67
2022/11/16 11:41:44;;;;;;;9.25;3.10;;;13.60;99.90;;;;;;5112993;28;20040;-68
2022/11/16 11:44:18;;;;;;;12.07;3.60;;;13.80;99.90;;;;;;5112842;28;20555;-67
2022/11/16 11:46:53;;;;;;;10.43;3.20;;;13.80;99.90;;;;;;5113197;28;20035;-68
2022/11/16 11:49:34;;;;;;;11.15;2.97;;;13.80;99.90;;;;;;5112875;28;20040;-67
2022/11/16 11:52:18;;;;;;;8.13;2.15;;;13.60;99.90;;;;;;5113517;28;20046;-67
2022/11/16 11:54:48;;;;;;;9.07;2.80;;;13.50;99.90;;;;;;5113046;28;20134;-68
2022/11/16 11:57:21;;;;;;;7.40;2.30;;;13.40;99.90;;;;;;5113603;28;20043;-68
2022/11/16 11:59:47;;;;;;;;;;;13.40;99.90;;;;;;5113215;28;20126;-68
2022/11/16 12:02:44;;;;;;;7.28;1.90;;;13.30;99.90;;;;;;5112638;27;19919;-68
2022/11/16 12:05:22;;;;;;;6.78;2.00;;;13.60;99.90;;;;;;5113016;28;20040;-67
2022/11/16 12:07:51;;;;;;;11.10;2.58;;;15.30;99.90;;;;;;5112608;28;20102;-67
2022/11/16 12:10:50;;;;;;;7.35;2.20;;;17.20;99.90;;;;;;5112529;28;20040;-68
2022/11/16 12:13:28;;;;;;;7.13;1.88;;;19.00;99.90;;;;;;5112551;28;20058;-68
2022/11/16 12:16:00;;;;;;;11.77;2.28;;;20.30;96.60;;;;;;5112841;28;20046;-68
2022/11/16 12:18:49;;;;;;;7.85;1.92;;;21.50;92.80;;;;;;5112453;28;20096;-68
2022/11/16 12:21:38;;;;;;;8.05;1.92;;;22.40;88.10;;;;;;5112283;28;20560;-68
2022/11/16 12:24:32;;;;;;;6.57;2.17;;;23.20;84.90;;;;;;5112610;28;20419;-68
2022/11/16 12:27:18;;;;;;;9.23;2.00;;;23.70;79.00;;;;;;5112416;28;20040;-68
2022/11/16 12:30:12;;;;;;;8.13;2.33;;;24.20;76.50;;;;;;5095378;28;20043;-68
2022/11/16 12:32:49;;;;;;;8.35;1.98;;;24.60;72.00;;;;;;5112260;28;20051;-68
2022/11/16 12:35:30;;;;;;;8.60;1.85;;;24.80;70.50;;;;;;5113879;28;20043;-68
2022/11/16 12:38:23;;;;;;;9.77;2.75;;;25.00;68.10;;;;;;5112489;28;20052;-65
2022/11/16 12:41:30;;;;;;;9.77;2.03;;;24.40;66.80;;;;;;5112295;28;20044;-66
2022/11/16 12:44:09;;;;;;;12.32;2.05;;;23.30;68.20;;;;;;5112538;28;20160;-66
2022/11/16 12:46:59;;;;;;;9.48;1.98;;;22.00;71.80;;;;;;5112254;28;20043;-66
2022/11/16 12:49:42;;;;;;;8.63;1.77;;;20.90;73.70;;;;;;5112425;28;20092;-66
2022/11/16 12:52:38;;;;;;;8.02;2.20;;;19.60;75.40;;;;;;5112302;28;20047;-66
2022/11/16 12:55:23;;;;;;;8.77;1.90;;;18.80;78.50;;;;;;5112079;28;20078;-66
2022/11/16 12:58:16;;;;;;;7.95;2.35;;;18.60;79.60;;;;;;5114878;28;20046;-66
2022/11/16 13:01:03;;;;;;;14.20;2.28;;;18.30;80.20;;;;;;5116423;28;20062;-66
2022/11/16 13:04:03;;;;;;;11.23;2.17;;;17.90;82.10;;;;;;5116065;28;20125;-66
2022/11/16 13:06:41;;;;;;;12.55;2.15;;;18.70;82.60;;;;;;5116357;28;20115;-66
2022/11/16 13:09:17;;;;;;;15.05;2.53;;;19.30;79.80;;;;;;5116244;28;20055;-66
2022/11/16 13:11:56;;;;;;;10.95;2.13;;;18.90;79.70;;;;;;5099183;28;20046;-68
2022/11/16 13:14:30;;;;;;;9.48;2.05;;;18.30;81.20;;;;;;5117401;28;20112;-69
2022/11/16 13:16:58;;;;;;;8.80;1.75;;;18.20;81.90;;;;;;5117563;28;20074;-68
2022/11/16 13:19:25;;;;;;;16.25;2.85;;;17.60;83.20;;;;;;5117067;28;20044;-69
2022/11/16 13:22:16;;;;;;;12.32;2.55;;;17.10;84.80;;;;;;5117285;28;20044;-68
2022/11/16 13:25:13;;;;;;;11.65;2.45;;;17.50;86.10;;;;;;5117231;28;20522;-68
2022/11/16 13:27:48;;;;;;;11.68;2.47;;;18.40;83.70;;;;;;5117330;28;20407;-69
2022/11/16 13:30:23;;;;;;;12.95;2.63;;;19.30;81.10;;;;;;5118394;27;20031;-69
2022/11/16 13:33:16;;;;;;;11.15;2.22;;;20.40;79.00;;;;;;5117633;28;20083;-69